Time;durP1;ratioP1;P1;durP2;ratioP2;P2;SDS_P1;SDS_P2;PMS_P1;PMS_P2;Temp;Humidity;BMP_temperature;BMP_pressure;BME280_temperature;BME280_humidity;BME280_pressure;Samples;Min_cycle;Max_cycle;Signal;HPM_P1;HPM_P2
2021/09/18 00:02:25;;;;;;;1.48;1.30;;;11.20;99.90;;;;;;5038133;28;20125;-79
2021/09/18 00:04:51;;;;;;;1.20;1.02;;;11.10;99.90;;;;;;5046498;28;20076;-79
2021/09/18 00:07:16;;;;;;;1.27;0.75;;;11.10;99.90;;;;;;5047341;28;20510;-79
2021/09/18 00:09:42;;;;;;;1.08;0.95;;;11.20;99.90;;;;;;5041970;28;20098;-79
2021/09/18 00:12:08;;;;;;;1.75;1.23;;;11.20;99.90;;;;;;5046530;28;20045;-78
2021/09/18 00:14:37;;;;;;;;;;;11.20;99.90;;;;;;5015733;28;20057;-78
2021/09/18 00:17:04;;;;;;;1.00;0.90;;;11.30;99.90;;;;;;5054242;28;19955;-79
2021/09/18 00:19:29;;;;;;;1.67;1.00;;;11.40;99.90;;;;;;5044186;28;20140;-79
2021/09/18 00:21:55;;;;;;;1.05;0.95;;;11.40;99.90;;;;;;5046884;28;20084;-79
2021/09/18 00:24:21;;;;;;;1.27;0.70;;;11.40;99.90;;;;;;5062217;28;20053;-79
2021/09/18 00:26:47;;;;;;;1.48;1.17;;;11.50;99.90;;;;;;5013151;28;20498;-78
2021/09/18 00:29:12;;;;;;;3.58;1.73;;;11.50;99.90;;;;;;5031944;28;20056;-79
2021/09/18 00:31:38;;;;;;;1.35;1.10;;;11.50;99.90;;;;;;5037380;28;20094;-79
2021/09/18 00:34:04;;;;;;;1.05;0.85;;;11.60;99.90;;;;;;5014016;28;20056;-79
2021/09/18 00:36:30;;;;;;;0.73;0.65;;;11.60;99.90;;;;;;5046755;28;20037;-79
2021/09/18 00:38:56;;;;;;;0.65;0.65;;;11.60;99.90;;;;;;5029838;28;20077;-79
2021/09/18 00:41:22;;;;;;;3.53;1.35;;;11.70;99.90;;;;;;5046898;28;20045;-78
2021/09/18 00:43:53;;;;;;;1.17;1.08;;;11.70;99.90;;;;;;5013068;28;20422;-78
2021/09/18 00:46:19;;;;;;;0.60;0.60;;;11.70;99.90;;;;;;5043085;28;20068;-79
2021/09/18 00:48:46;;;;;;;1.13;1.00;;;11.80;99.90;;;;;;5036002;28;20036;-78
2021/09/18 00:51:12;;;;;;;1.42;1.17;;;11.80;99.90;;;;;;5055529;28;20045;-78
2021/09/18 00:53:38;;;;;;;0.80;0.80;;;11.80;99.90;;;;;;5046918;28;20049;-80
2021/09/18 00:56:05;;;;;;;0.90;0.85;;;11.80;99.90;;;;;;5029999;28;20042;-79
2021/09/18 00:58:31;;;;;;;0.75;0.75;;;11.80;99.90;;;;;;5016071;28;20038;-79
2021/09/18 01:00:56;;;;;;;1.90;1.08;;;11.80;99.90;;;;;;5028791;28;20042;-79
2021/09/18 01:03:22;;;;;;;2.55;0.98;;;11.80;99.90;;;;;;5028966;28;20132;-80
2021/09/18 01:05:48;;;;;;;1.15;1.05;;;11.70;99.90;;;;;;5046347;28;20041;-79
2021/09/18 01:08:14;;;;;;;1.23;1.15;;;11.70;99.90;;;;;;5049778;28;20076;-80
2021/09/18 01:10:39;;;;;;;1.60;0.82;;;11.60;99.90;;;;;;5054085;28;20120;-80
2021/09/18 01:13:17;;;;;;;2.42;1.63;;;11.60;99.90;;;;;;5046134;28;20475;-79
2021/09/18 01:15:44;;;;;;;1.27;1.02;;;11.60;99.90;;;;;;5058879;28;20474;-79
2021/09/18 01:18:10;;;;;;;0.75;0.75;;;11.60;99.90;;;;;;5047551;28;20037;-79
2021/09/18 01:20:39;;;;;;;1.80;1.20;;;11.60;99.90;;;;;;5046444;28;20114;-79
2021/09/18 01:23:07;;;;;;;1.08;0.98;;;11.60;99.90;;;;;;5032053;28;20045;-79
2021/09/18 01:25:38;;;;;;;2.42;1.65;;;11.60;99.90;;;;;;5033224;28;20041;-79
2021/09/18 01:28:05;;;;;;;2.10;1.13;;;11.60;99.90;;;;;;5051383;28;20041;-79
2021/09/18 01:30:33;;;;;;;1.00;0.60;;;11.60;99.90;;;;;;5049830;28;20125;-79
2021/09/18 01:33:00;;;;;;;1.17;1.02;;;11.60;99.90;;;;;;5047838;28;20095;-79
2021/09/18 01:35:27;;;;;;;2.03;1.30;;;11.60;99.90;;;;;;5032911;28;20045;-80
2021/09/18 01:37:53;;;;;;;2.83;1.67;;;11.50;99.90;;;;;;5026281;28;20498;-79
2021/09/18 01:40:27;;;;;;;2.05;1.50;;;11.50;99.90;;;;;;5049910;28;20065;-79
2021/09/18 01:42:54;;;;;;;2.67;1.42;;;11.40;99.90;;;;;;5048683;28;20045;-79
2021/09/18 01:45:20;;;;;;;1.40;1.30;;;11.40;99.90;;;;;;5049664;28;20123;-79
2021/09/18 01:47:47;;;;;;;;;;;11.40;99.90;;;;;;5033338;28;20514;-78
2021/09/18 01:51:00;;;;;;;2.13;1.23;;;11.30;99.90;;;;;;5046109;28;20354;-78
2021/09/18 01:53:24;;;;;;;2.13;1.67;;;11.40;99.90;;;;;;5032670;28;20399;-79
2021/09/18 01:55:50;;;;;;;1.08;0.98;;;11.40;99.90;;;;;;5049072;28;20049;-79
2021/09/18 01:58:17;;;;;;;2.78;1.85;;;11.40;99.90;;;;;;5048939;28;20041;-79
2021/09/18 02:00:45;;;;;;;3.22;1.85;;;11.40;99.90;;;;;;5016469;28;20041;-78
2021/09/18 02:03:11;;;;;;;1.77;1.42;;;11.40;99.90;;;;;;5014602;28;20099;-79
2021/09/18 02:05:37;;;;;;;3.95;1.65;;;11.40;99.90;;;;;;5016090;28;20057;-78
2021/09/18 02:08:03;;;;;;;1.27;1.17;;;11.40;99.90;;;;;;5036553;28;20102;-78
2021/09/18 02:10:30;;;;;;;2.83;1.25;;;11.40;99.90;;;;;;5057869;28;20387;-78
2021/09/18 02:12:57;;;;;;;1.88;1.63;;;11.40;99.90;;;;;;5015695;28;20049;-78
2021/09/18 02:15:23;;;;;;;2.90;1.65;;;11.40;99.90;;;;;;5051666;28;20041;-79
2021/09/18 02:17:50;;;;;;;1.83;1.50;;;11.40;99.90;;;;;;5018326;28;20041;-78
2021/09/18 02:20:19;;;;;;;3.45;1.30;;;11.40;99.90;;;;;;5031735;28;20076;-79
2021/09/18 02:22:45;;;;;;;1.42;1.30;;;11.40;99.90;;;;;;5038799;28;20041;-78
2021/09/18 02:25:11;;;;;;;;;;;11.50;99.90;;;;;;5057641;28;20521;-78
2021/09/18 02:27:37;;;;;;;3.03;1.67;;;11.50;99.90;;;;;;5035020;28;19932;-78
2021/09/18 02:30:05;;;;;;;2.53;1.80;;;11.50;99.90;;;;;;5031656;28;20406;-78
2021/09/18 02:32:31;;;;;;;1.17;1.08;;;11.60;99.90;;;;;;5057797;28;20049;-78
2021/09/18 02:34:56;;;;;;;2.20;1.30;;;11.70;99.90;;;;;;5047612;28;20037;-79
2021/09/18 02:37:22;;;;;;;2.88;2.05;;;11.70;99.90;;;;;;5047741;28;20045;-79
2021/09/18 02:39:48;;;;;;;2.10;1.70;;;11.80;99.90;;;;;;5047922;28;20041;-78
2021/09/18 02:42:13;;;;;;;1.08;0.75;;;11.80;99.90;;;;;;5048237;28;20176;-79
2021/09/18 02:44:39;;;;;;;1.92;1.35;;;11.80;99.90;;;;;;5048704;28;20041;-78
2021/09/18 02:47:05;;;;;;;1.25;1.15;;;11.90;99.90;;;;;;5031972;28;20120;-78
2021/09/18 02:49:30;;;;;;;5.05;1.70;;;11.90;99.90;;;;;;5032399;28;20121;-79
2021/09/18 02:51:56;;;;;;;2.67;1.45;;;11.90;99.90;;;;;;5047645;28;20049;-79
2021/09/18 02:54:22;;;;;;;1.55;1.42;;;12.10;99.90;;;;;;5048962;28;20101;-79
2021/09/18 02:56:47;;;;;;;1.73;1.23;;;12.00;99.90;;;;;;5032564;28;20034;-78
2021/09/18 02:59:13;;;;;;;2.75;1.58;;;12.00;99.90;;;;;;5031847;28;20356;-79
2021/09/18 03:01:39;;;;;;;4.53;1.08;;;12.00;99.90;;;;;;5015418;28;20080;-78
2021/09/18 03:04:04;;;;;;;1.73;1.17;;;12.10;99.90;;;;;;5030448;28;20379;-78
2021/09/18 03:06:30;;;;;;;3.83;2.13;;;12.10;99.90;;;;;;5048903;28;20103;-78
2021/09/18 03:08:56;;;;;;;1.35;1.15;;;12.20;99.90;;;;;;5049629;28;20061;-79
2021/09/18 03:11:22;;;;;;;4.05;1.67;;;12.20;99.90;;;;;;5016729;28;20045;-76
2021/09/18 03:13:48;;;;;;;2.80;1.92;;;12.20;99.90;;;;;;5051922;28;20084;-76
2021/09/18 03:16:14;;;;;;;3.88;2.35;;;12.20;99.90;;;;;;5034960;28;20049;-78
2021/09/18 03:18:40;;;;;;;1.92;1.77;;;12.20;99.90;;;;;;5051969;28;20079;-78
2021/09/18 03:21:06;;;;;;;2.75;1.80;;;12.10;99.90;;;;;;5032264;28;20045;-79
2021/09/18 03:23:32;;;;;;;1.48;1.17;;;12.00;99.90;;;;;;5017238;28;20104;-79
2021/09/18 03:25:58;;;;;;;2.92;1.73;;;12.00;99.90;;;;;;5047516;28;20375;-79
2021/09/18 03:28:23;;;;;;;2.67;1.60;;;11.90;99.90;;;;;;5034119;28;20049;-79
2021/09/18 03:30:49;;;;;;;7.00;1.90;;;11.80;99.90;;;;;;5047045;28;20057;-78
2021/09/18 03:33:15;;;;;;;2.53;2.03;;;11.80;99.90;;;;;;5022796;28;20053;-79
2021/09/18 03:35:42;;;;;;;2.05;1.70;;;11.70;99.90;;;;;;5016446;28;20041;-78
2021/09/18 03:38:09;;;;;;;1.60;1.35;;;11.60;99.90;;;;;;5030131;28;20088;-78
2021/09/18 03:40:34;;;;;;;2.25;1.60;;;11.50;99.90;;;;;;5030904;28;20045;-79
2021/09/18 03:43:00;;;;;;;1.75;1.48;;;11.50;99.90;;;;;;5046367;28;20055;-78
2021/09/18 03:45:26;;;;;;;2.28;1.77;;;11.40;99.90;;;;;;5047260;28;20127;-79
2021/09/18 03:47:52;;;;;;;2.25;1.60;;;11.30;99.90;;;;;;5047148;28;20660;-79
2021/09/18 03:50:17;;;;;;;1.70;1.25;;;11.20;99.90;;;;;;5047257;28;20080;-79
2021/09/18 03:52:43;;;;;;;2.70;1.67;;;11.10;99.90;;;;;;5047178;28;20255;-78
2021/09/18 03:55:10;;;;;;;1.15;1.00;;;11.10;99.90;;;;;;5046834;28;20045;-79
2021/09/18 03:57:35;;;;;;;2.60;1.63;;;11.00;99.90;;;;;;5030429;28;20053;-78
2021/09/18 04:00:02;;;;;;;3.35;2.08;;;10.90;99.90;;;;;;5046828;28;20037;-79
2021/09/18 04:02:28;;;;;;;1.83;1.42;;;10.90;99.90;;;;;;5046405;28;20046;-78
2021/09/18 04:04:54;;;;;;;3.30;1.05;;;10.80;99.90;;;;;;5029601;28;20042;-79
2021/09/18 04:07:19;;;;;;;9.60;1.88;;;10.70;99.90;;;;;;5047170;28;20064;-79
2021/09/18 04:09:45;;;;;;;1.63;1.38;;;10.60;99.90;;;;;;5042502;28;20135;-79
2021/09/18 04:12:11;;;;;;;2.20;1.25;;;10.60;99.90;;;;;;5029796;28;20053;-79
2021/09/18 04:14:36;;;;;;;1.80;1.10;;;10.50;99.90;;;;;;5036759;28;20052;-79
2021/09/18 04:17:02;;;;;;;2.47;1.75;;;10.50;99.90;;;;;;5022354;28;20043;-79
2021/09/18 04:19:28;;;;;;;3.08;2.22;;;10.50;99.90;;;;;;5032062;28;20048;-79
2021/09/18 04:21:53;;;;;;;1.92;1.25;;;10.40;99.90;;;;;;5046664;28;20088;-79
2021/09/18 04:24:19;;;;;;;5.47;2.90;;;10.40;99.90;;;;;;5048780;28;20046;-79
2021/09/18 04:26:45;;;;;;;2.03;1.50;;;10.30;99.90;;;;;;5030249;28;20483;-79
2021/09/18 04:29:10;;;;;;;3.92;2.80;;;10.30;99.90;;;;;;5031389;28;20251;-78
2021/09/18 04:31:36;;;;;;;2.58;1.70;;;10.30;99.90;;;;;;5046632;28;20088;-79
2021/09/18 04:34:02;;;;;;;2.13;1.25;;;10.30;99.90;;;;;;5028946;28;20045;-78
2021/09/18 04:36:28;;;;;;;1.85;1.60;;;10.40;99.90;;;;;;5046964;28;20041;-79
2021/09/18 04:38:53;;;;;;;2.05;1.85;;;10.40;99.90;;;;;;5051584;28;20049;-79
2021/09/18 04:41:20;;;;;;;6.28;1.40;;;10.50;99.90;;;;;;5054978;28;20037;-79
2021/09/18 04:43:46;;;;;;;2.22;2.00;;;10.50;99.90;;;;;;5046241;28;20099;-79
2021/09/18 04:46:11;;;;;;;2.08;1.77;;;10.60;99.90;;;;;;5029605;28;20038;-79
2021/09/18 04:48:37;;;;;;;2.85;2.15;;;10.70;99.90;;;;;;5029805;28;20049;-79
2021/09/18 04:51:03;;;;;;;2.05;1.77;;;10.70;99.90;;;;;;5046104;28;20107;-79
2021/09/18 04:53:28;;;;;;;2.30;1.95;;;10.70;99.90;;;;;;5059955;28;20053;-79
2021/09/18 04:55:54;;;;;;;2.80;2.05;;;10.70;99.90;;;;;;5013340;28;20101;-80
2021/09/18 04:58:20;;;;;;;3.17;2.13;;;10.70;99.90;;;;;;5031305;28;20045;-80
2021/09/18 05:00:46;;;;;;;1.38;1.27;;;10.70;99.90;;;;;;5050934;28;20395;-79
2021/09/18 05:03:11;;;;;;;2.88;2.15;;;10.80;99.90;;;;;;5032089;28;20060;-79
2021/09/18 05:05:40;;;;;;;5.28;1.90;;;10.80;99.90;;;;;;5046644;28;20049;-79
2021/09/18 05:08:06;;;;;;;2.75;2.17;;;10.90;99.90;;;;;;5068413;28;20052;-79
2021/09/18 05:10:32;;;;;;;2.22;1.42;;;11.00;99.90;;;;;;5058270;28;20545;-79
2021/09/18 05:12:57;;;;;;;4.55;2.15;;;11.00;99.90;;;;;;5049310;28;20165;-79
2021/09/18 05:15:24;;;;;;;3.38;1.73;;;11.00;99.90;;;;;;5055328;28;20048;-79
2021/09/18 05:17:50;;;;;;;3.33;1.65;;;11.10;99.90;;;;;;5037681;28;20076;-79
2021/09/18 05:20:15;;;;;;;3.63;2.10;;;11.20;99.90;;;;;;5049894;28;20426;-79
2021/09/18 05:22:41;;;;;;;7.25;1.58;;;11.20;99.90;;;;;;5031589;28;20046;-80
2021/09/18 05:25:07;;;;;;;2.95;2.00;;;11.20;99.90;;;;;;5033484;28;20402;-79
2021/09/18 05:27:33;;;;;;;2.75;1.48;;;11.20;99.90;;;;;;5029944;28;20399;-79
2021/09/18 05:29:59;;;;;;;6.18;2.95;;;11.20;99.90;;;;;;5056822;28;20048;-79
2021/09/18 05:32:24;;;;;;;6.13;2.45;;;11.20;99.90;;;;;;5046465;28;20511;-80
2021/09/18 05:34:50;;;;;;;3.88;2.10;;;11.20;99.90;;;;;;5016831;28;20043;-79
2021/09/18 05:37:16;;;;;;;1.85;1.30;;;11.10;99.90;;;;;;5053132;28;20072;-78
2021/09/18 05:39:41;;;;;;;1.52;1.42;;;11.10;99.90;;;;;;5042353;28;20124;-78
2021/09/18 05:42:08;;;;;;;2.65;2.20;;;11.10;99.90;;;;;;5066969;28;20045;-79
2021/09/18 05:44:34;;;;;;;3.80;2.78;;;11.00;99.90;;;;;;5036371;28;20048;-79
2021/09/18 05:47:00;;;;;;;2.42;2.10;;;11.00;99.90;;;;;;5053369;28;20041;-80
2021/09/18 05:49:26;;;;;;;2.30;1.92;;;11.00;99.90;;;;;;5069265;28;20052;-80
2021/09/18 05:51:51;;;;;;;2.22;1.73;;;11.00;99.90;;;;;;5051330;28;20041;-79
2021/09/18 05:54:17;;;;;;;2.72;1.83;;;11.00;99.90;;;;;;5049691;28;20033;-79
2021/09/18 05:56:43;;;;;;;2.05;1.75;;;11.00;99.90;;;;;;5049266;28;20069;-79
2021/09/18 05:59:08;;;;;;;3.33;1.85;;;11.00;99.90;;;;;;5015602;28;20367;-80
2021/09/18 06:01:34;;;;;;;3.85;1.60;;;10.90;99.90;;;;;;5033173;28;20045;-79
2021/09/18 06:04:00;;;;;;;2.00;1.80;;;10.90;99.90;;;;;;5047960;28;20374;-79
2021/09/18 06:06:25;;;;;;;2.15;1.67;;;10.90;99.90;;;;;;5049691;28;20119;-79
2021/09/18 06:08:51;;;;;;;5.22;1.98;;;10.90;99.90;;;;;;5049563;28;20093;-80
2021/09/18 06:11:17;;;;;;;2.92;1.38;;;10.90;99.90;;;;;;5014331;28;20057;-79
2021/09/18 06:13:43;;;;;;;5.55;1.85;;;10.90;99.90;;;;;;5049474;28;20041;-79
2021/09/18 06:16:08;;;;;;;2.50;1.95;;;11.00;99.90;;;;;;5045977;28;20041;-79
2021/09/18 06:18:34;;;;;;;1.77;1.60;;;11.00;99.90;;;;;;5039477;28;20045;-81
2021/09/18 06:21:00;;;;;;;2.65;2.13;;;11.00;99.90;;;;;;5055105;28;20045;-79
2021/09/18 06:23:27;;;;;;;;;;;11.00;99.90;;;;;;5048798;28;20041;-79
2021/09/18 06:25:53;;;;;;;1.58;1.45;;;11.10;99.90;;;;;;5034785;28;19917;-79
2021/09/18 06:28:19;;;;;;;1.52;1.42;;;11.10;99.90;;;;;;5035109;28;20542;-79
2021/09/18 06:30:45;;;;;;;2.45;1.98;;;11.20;99.90;;;;;;5036802;28;20537;-79
2021/09/18 06:33:10;;;;;;;2.20;1.45;;;11.20;99.90;;;;;;5056521;28;20063;-79
2021/09/18 06:35:36;;;;;;;1.67;1.15;;;11.30;99.90;;;;;;5032725;28;20057;-79
2021/09/18 06:38:02;;;;;;;2.75;1.70;;;11.40;99.90;;;;;;5052042;28;20368;-79
2021/09/18 06:40:28;;;;;;;5.53;2.15;;;11.50;99.90;;;;;;5051005;28;20038;-81
2021/09/18 06:42:54;;;;;;;2.63;1.88;;;11.60;99.90;;;;;;5031762;28;20060;-80
2021/09/18 06:45:20;;;;;;;2.30;2.10;;;11.80;99.90;;;;;;5032126;28;20475;-79
2021/09/18 06:47:46;;;;;;;1.25;1.15;;;11.90;99.90;;;;;;5049676;28;20041;-79
2021/09/18 06:50:12;;;;;;;2.22;1.88;;;12.00;99.90;;;;;;5031700;28;20061;-79
2021/09/18 06:52:38;;;;;;;2.58;1.73;;;12.20;99.90;;;;;;5049025;28;20042;-79
2021/09/18 06:55:05;;;;;;;3.17;1.80;;;12.30;99.90;;;;;;5048618;28;20099;-79
2021/09/18 06:57:32;;;;;;;1.85;1.70;;;12.40;99.90;;;;;;5048583;28;20049;-79
2021/09/18 06:59:58;;;;;;;3.83;2.15;;;12.50;99.90;;;;;;5048677;28;20049;-78
2021/09/18 07:02:24;;;;;;;2.38;1.85;;;12.60;99.90;;;;;;5047858;28;20095;-79
2021/09/18 07:04:49;;;;;;;2.30;1.42;;;12.70;99.90;;;;;;5047790;28;20077;-78
2021/09/18 07:07:15;;;;;;;1.80;1.35;;;12.80;99.90;;;;;;5047953;28;20102;-79
2021/09/18 07:09:41;;;;;;;1.27;1.00;;;12.80;99.90;;;;;;5058969;28;20053;-79
2021/09/18 07:12:06;;;;;;;1.58;1.38;;;12.90;99.90;;;;;;5047625;28;20049;-78
2021/09/18 07:14:32;;;;;;;2.22;1.70;;;12.90;99.90;;;;;;5053486;28;20374;-79
2021/09/18 07:16:58;;;;;;;2.95;1.63;;;13.00;99.90;;;;;;5023180;28;20094;-79
2021/09/18 07:19:24;;;;;;;1.23;1.13;;;13.10;99.90;;;;;;5049085;28;20048;-79
2021/09/18 07:21:49;;;;;;;2.50;2.13;;;13.20;99.90;;;;;;5035318;28;20124;-79
2021/09/18 07:24:15;;;;;;;2.03;1.48;;;13.40;99.90;;;;;;5053093;28;20183;-79
2021/09/18 07:26:41;;;;;;;2.00;0.90;;;13.50;99.90;;;;;;5051859;28;20095;-79
2021/09/18 07:29:06;;;;;;;4.10;2.20;;;14.10;99.90;;;;;;5037709;28;20139;-79
2021/09/18 07:31:32;;;;;;;2.13;1.92;;;14.20;99.90;;;;;;5047760;28;20050;-79
2021/09/18 07:33:58;;;;;;;1.52;1.20;;;14.00;99.90;;;;;;5035437;28;20045;-78
2021/09/18 07:36:24;;;;;;;1.45;1.23;;;14.10;99.90;;;;;;5056409;28;20038;-78
2021/09/18 07:38:50;;;;;;;;;;;14.20;99.90;;;;;;5033558;28;20447;-78
2021/09/18 07:41:16;;;;;;;1.85;1.35;;;14.20;99.90;;;;;;5032187;28;19917;-78
2021/09/18 07:43:43;;;;;;;2.20;1.40;;;14.20;99.90;;;;;;5061146;28;20056;-78
2021/09/18 07:46:09;;;;;;;2.22;1.83;;;14.20;99.90;;;;;;5032196;28;20053;-78
2021/09/18 07:48:34;;;;;;;1.27;1.17;;;14.20;99.90;;;;;;5047903;28;20041;-79
2021/09/18 07:51:00;;;;;;;6.60;1.67;;;14.20;99.90;;;;;;5047701;28;20041;-78
2021/09/18 07:53:26;;;;;;;1.92;1.35;;;14.30;99.90;;;;;;5030662;28;20045;-79
2021/09/18 07:55:52;;;;;;;;;;;14.30;99.90;;;;;;5047958;28;20041;-78
2021/09/18 07:58:18;;;;;;;3.00;1.65;;;14.40;99.90;;;;;;5046718;28;19956;-79
2021/09/18 08:00:50;;;;;;;1.05;0.95;;;14.50;99.90;;;;;;5031261;28;20098;-78
2021/09/18 08:03:15;;;;;;;1.58;0.98;;;14.60;99.90;;;;;;5045921;28;20056;-77
2021/09/18 08:05:41;;;;;;;2.03;1.27;;;14.80;99.90;;;;;;5048714;28;20042;-78
2021/09/18 08:08:07;;;;;;;2.65;1.13;;;14.90;99.90;;;;;;5035183;28;20107;-77
2021/09/18 08:10:34;;;;;;;;;;;15.10;99.90;;;;;;5070353;28;20406;-78
2021/09/18 08:13:00;;;;;;;3.05;1.05;;;15.00;99.90;;;;;;5053737;28;19940;-75
2021/09/18 08:15:26;;;;;;;2.03;1.60;;;;;;;;;;5062618;28;20098;-77
2021/09/18 08:17:52;;;;;;;2.17;1.98;;;15.20;99.90;;;;;;5038622;28;20042;-78
2021/09/18 08:20:19;;;;;;;2.80;1.75;;;15.30;99.90;;;;;;5047692;28;20045;-78
2021/09/18 08:22:46;;;;;;;2.50;1.65;;;15.40;99.90;;;;;;5034401;28;20045;-79
2021/09/18 08:25:11;;;;;;;1.30;1.05;;;15.50;99.90;;;;;;5030938;28;20068;-78
2021/09/18 08:27:37;;;;;;;1.17;0.90;;;15.60;99.90;;;;;;5021474;28;20087;-78
2021/09/18 08:30:07;;;;;;;0.85;0.70;;;15.70;99.90;;;;;;5056108;28;20092;-78
2021/09/18 08:32:33;;;;;;;0.80;0.70;;;15.80;99.90;;;;;;5023487;28;20033;-80
2021/09/18 08:34:59;;;;;;;0.63;0.50;;;15.80;99.90;;;;;;5046170;28;20099;-78
2021/09/18 08:37:25;;;;;;;0.82;0.57;;;15.90;99.90;;;;;;5029963;28;20084;-78
2021/09/18 08:39:50;;;;;;;3.42;0.80;;;16.00;99.90;;;;;;5037847;28;20502;-79
2021/09/18 08:42:16;;;;;;;;;;;16.00;99.90;;;;;;5046486;28;20494;-78
2021/09/18 08:44:42;;;;;;;0.65;0.65;;;16.10;99.90;;;;;;5060257;28;19916;-78
2021/09/18 08:47:10;;;;;;;0.60;0.60;;;16.10;99.90;;;;;;5030573;28;20458;-79
2021/09/18 08:49:36;;;;;;;0.40;0.40;;;16.20;99.90;;;;;;5030189;28;20049;-78
2021/09/18 08:52:03;;;;;;;0.50;0.50;;;16.20;99.90;;;;;;5053629;28;20045;-78
2021/09/18 08:54:29;;;;;;;0.68;0.68;;;16.40;99.90;;;;;;5053693;28;20041;-78
2021/09/18 08:56:55;;;;;;;0.47;0.47;;;16.40;99.90;;;;;;5047445;28;20479;-78
2021/09/18 08:59:20;;;;;;;;;;;16.50;99.90;;;;;;5031646;28;20037;-79
2021/09/18 09:02:07;;;;;;;0.85;0.68;;;16.50;99.90;;;;;;5044897;28;19917;-78
2021/09/18 09:04:33;;;;;;;0.57;0.47;;;16.60;99.90;;;;;;5029876;28;20102;-79
2021/09/18 09:07:00;;;;;;;;;;;16.70;99.90;;;;;;5047857;28;20676;-79
2021/09/18 09:09:26;;;;;;;;;;;16.80;99.90;;;;;;5057214;28;19921;-79
2021/09/18 09:11:54;;;;;;;2.22;1.02;;;16.80;99.90;;;;;;5014072;28;19924;-79
2021/09/18 09:14:20;;;;;;;0.55;0.50;;;17.00;99.90;;;;;;5031912;28;20041;-80
2021/09/18 09:17:04;;;;;;;0.77;0.77;;;17.00;99.90;;;;;;5056919;28;20378;-79
2021/09/18 09:19:40;;;;;;;2.03;1.10;;;17.10;99.90;;;;;;5031521;28;20065;-78
2021/09/18 09:22:06;;;;;;;1.25;0.68;;;17.10;99.90;;;;;;5048039;28;20410;-78
2021/09/18 09:24:32;;;;;;;;;;;17.10;99.90;;;;;;5048506;28;20051;-81
2021/09/18 09:27:12;;;;;;;0.80;0.60;;;17.20;99.90;;;;;;5049116;28;20011;-79
2021/09/18 09:29:45;;;;;;;1.40;0.70;;;17.20;99.90;;;;;;5040807;28;20401;-79
2021/09/18 09:32:38;;;;;;;0.40;0.40;;;17.30;99.90;;;;;;5054660;28;20456;-78
2021/09/18 09:35:10;;;;;;;0.70;0.70;;;17.30;99.90;;;;;;5030217;28;20034;-78
2021/09/18 09:37:37;;;;;;;1.60;1.17;;;17.40;99.90;;;;;;5026037;28;20060;-77
2021/09/18 09:40:05;;;;;;;0.68;0.50;;;;;;;;;;5047827;28;20511;-78
2021/09/18 09:42:35;;;;;;;0.55;0.55;;;17.60;99.90;;;;;;5046738;28;20092;-78
2021/09/18 09:45:18;;;;;;;0.65;0.60;;;17.60;99.90;;;;;;5018313;28;20077;-78
2021/09/18 09:47:46;;;;;;;1.08;0.90;;;17.70;99.90;;;;;;5034817;28;20049;-79
2021/09/18 09:50:13;;;;;;;0.65;0.65;;;17.70;99.90;;;;;;5049599;28;20049;-78
2021/09/18 09:52:45;;;;;;;6.13;0.70;;;17.80;99.90;;;;;;5016905;28;20050;-78
2021/09/18 09:55:17;;;;;;;1.70;0.52;;;17.90;99.90;;;;;;5049312;28;20112;-79
2021/09/18 09:57:45;;;;;;;0.80;0.80;;;17.80;99.90;;;;;;5034307;28;20056;-78
2021/09/18 10:00:13;;;;;;;0.75;0.75;;;17.80;99.90;;;;;;5049959;28;20038;-78
2021/09/18 10:02:41;;;;;;;4.22;0.80;;;17.80;99.90;;;;;;5032192;28;20505;-78
2021/09/18 10:05:12;;;;;;;1.02;0.80;;;17.80;99.90;;;;;;5032891;28;20494;-78
2021/09/18 10:07:39;;;;;;;1.13;0.80;;;17.90;99.90;;;;;;5032993;28;20049;-79
2021/09/18 10:10:07;;;;;;;0.60;0.40;;;17.90;99.90;;;;;;5049283;28;20061;-79
2021/09/18 10:12:35;;;;;;;0.80;0.75;;;17.90;99.90;;;;;;5064403;28;20053;-79
2021/09/18 10:15:05;;;;;;;1.30;1.00;;;18.10;99.90;;;;;;5068820;28;20394;-78
2021/09/18 10:17:34;;;;;;;0.68;0.65;;;18.10;99.90;;;;;;5037686;28;20037;-78
2021/09/18 10:20:06;;;;;;;0.55;0.55;;;18.20;99.90;;;;;;5058952;28;20478;-78
2021/09/18 10:25:23;;;;;;;0.63;0.63;;;18.40;99.90;;;;;;5049510;28;20050;-78
2021/09/18 10:28:04;;;;;;;4.03;0.70;;;18.40;99.90;;;;;;5040444;28;20037;-78
2021/09/18 10:30:46;;;;;;;0.68;0.60;;;18.40;99.90;;;;;;5041204;28;20511;-76
2021/09/18 10:33:35;;;;;;;0.43;0.43;;;18.40;99.90;;;;;;5061413;28;20075;-79
2021/09/18 10:36:09;;;;;;;0.40;0.40;;;18.50;99.90;;;;;;5062392;28;20117;-80
2021/09/18 10:38:50;;;;;;;1.25;0.70;;;18.60;99.90;;;;;;5066638;28;20052;-79
2021/09/18 10:41:20;;;;;;;0.50;0.50;;;18.60;99.90;;;;;;5049759;28;20050;-79
2021/09/18 10:43:55;;;;;;;1.52;0.88;;;18.70;99.90;;;;;;5032859;28;20352;-78
2021/09/18 10:46:41;;;;;;;0.60;0.60;;;18.70;99.90;;;;;;5016843;28;20402;-79
2021/09/18 10:49:34;;;;;;;1.25;0.88;;;18.80;99.90;;;;;;5015296;28;20072;-79
2021/09/18 10:52:23;;;;;;;0.70;0.70;;;18.80;99.90;;;;;;5029843;28;20120;-79
2021/09/18 10:55:10;;;;;;;1.00;0.90;;;18.90;99.90;;;;;;5065595;28;20620;-78
2021/09/18 10:57:36;;;;;;;1.77;1.00;;;19.00;99.90;;;;;;5032229;28;20459;-78
2021/09/18 11:00:03;;;;;;;;;;;19.10;99.90;;;;;;5049325;28;20077;-79
2021/09/18 11:02:32;;;;;;;2.65;1.25;;;19.20;99.90;;;;;;5031825;28;19917;-78
2021/09/18 11:04:59;;;;;;;3.25;0.82;;;19.20;99.90;;;;;;5048340;28;20175;-79
2021/09/18 11:07:40;;;;;;;1.40;1.10;;;19.30;99.90;;;;;;5023564;28;20045;-79
2021/09/18 11:10:32;;;;;;;2.08;0.95;;;19.40;99.90;;;;;;5059410;28;20133;-78
2021/09/18 11:13:07;;;;;;;1.90;1.15;;;19.20;99.90;;;;;;5031856;28;20087;-79
2021/09/18 11:15:40;;;;;;;0.77;0.70;;;19.50;99.90;;;;;;5060209;28;20545;-78
2021/09/18 11:18:39;;;;;;;1.15;0.98;;;19.60;99.90;;;;;;5019659;28;20501;-78
2021/09/18 11:21:07;;;;;;;3.05;0.90;;;19.60;99.90;;;;;;5015405;28;20064;-78
2021/09/18 11:23:54;;;;;;;1.08;0.80;;;19.50;99.90;;;;;;5033152;28;20048;-78
2021/09/18 11:26:31;;;;;;;2.03;0.77;;;19.40;99.90;;;;;;5031369;28;20042;-80
2021/09/18 11:29:28;;;;;;;1.52;1.23;;;19.50;99.90;;;;;;5050125;28;20056;-78
2021/09/18 11:32:04;;;;;;;2.15;1.20;;;19.60;99.90;;;;;;5047199;28;20539;-77
2021/09/18 11:34:48;;;;;;;1.08;0.98;;;19.80;99.90;;;;;;5047299;28;20056;-78
2021/09/18 11:37:22;;;;;;;1.70;1.20;;;19.80;99.90;;;;;;5048082;28;20045;-77
2021/09/18 11:40:04;;;;;;;2.05;1.33;;;19.80;99.90;;;;;;5035151;28;20044;-78
2021/09/18 11:42:36;;;;;;;2.13;1.08;;;19.90;99.90;;;;;;5059699;28;20038;-78
2021/09/18 11:45:08;;;;;;;1.33;1.10;;;19.80;99.90;;;;;;5031362;28;20067;-78
2021/09/18 11:47:44;;;;;;;1.73;1.33;;;19.90;99.90;;;;;;5015018;28;20076;-76
2021/09/18 11:50:30;;;;;;;1.85;1.25;;;19.90;99.90;;;;;;5030590;28;20177;-77
2021/09/18 11:53:07;;;;;;;1.00;0.90;;;19.90;99.90;;;;;;5048185;28;20065;-79
2021/09/18 11:55:38;;;;;;;2.38;1.30;;;20.00;99.90;;;;;;5030819;28;20045;-78
2021/09/18 11:58:17;;;;;;;1.75;1.30;;;20.10;99.90;;;;;;5050633;28;20045;-77
2021/09/18 12:00:58;;;;;;;4.40;1.88;;;20.20;99.90;;;;;;5057302;28;20481;-77
2021/09/18 12:03:26;;;;;;;1.17;0.88;;;20.20;99.90;;;;;;5013007;28;20049;-78
2021/09/18 12:06:06;;;;;;;2.47;1.20;;;20.20;99.90;;;;;;5044499;28;20398;-77
2021/09/18 12:08:34;;;;;;;2.00;1.15;;;20.30;99.90;;;;;;5036878;28;20045;-77
2021/09/18 12:11:11;;;;;;;1.27;1.10;;;20.40;99.90;;;;;;5021404;28;20049;-77
2021/09/18 12:13:42;;;;;;;1.85;1.10;;;20.40;99.90;;;;;;5057902;28;20878;-78
2021/09/18 12:16:09;;;;;;;3.42;1.50;;;20.40;99.90;;;;;;5044208;28;20038;-78
2021/09/18 12:18:37;;;;;;;1.70;1.15;;;20.40;99.90;;;;;;5031926;28;20037;-78
2021/09/18 12:21:16;;;;;;;1.52;1.35;;;20.50;99.90;;;;;;5014914;28;20131;-77
2021/09/18 12:23:44;;;;;;;1.48;1.13;;;20.70;99.90;;;;;;5048022;28;20103;-77
2021/09/18 12:26:11;;;;;;;1.45;1.20;;;20.80;99.90;;;;;;5047529;28;20045;-78
2021/09/18 12:28:38;;;;;;;1.63;1.27;;;21.00;99.90;;;;;;5015773;28;20049;-77
2021/09/18 12:31:20;;;;;;;1.30;0.98;;;21.20;99.90;;;;;;5031323;28;20088;-77
2021/09/18 12:33:47;;;;;;;1.85;1.30;;;;;;;;;;5043338;28;20052;-77
2021/09/18 12:36:15;;;;;;;1.70;1.30;;;21.30;99.90;;;;;;5047810;28;20036;-77
2021/09/18 12:38:42;;;;;;;2.08;1.52;;;21.30;99.90;;;;;;5049975;28;20125;-79
2021/09/18 12:41:13;;;;;;;2.28;1.15;;;21.40;99.90;;;;;;5057582;28;20045;-77
2021/09/18 12:44:25;;;;;;;2.40;1.52;;;21.50;99.90;;;;;;5030341;28;20116;-79
2021/09/18 12:46:52;;;;;;;2.22;1.50;;;21.40;99.90;;;;;;4998491;28;20049;-78
2021/09/18 12:49:18;;;;;;;1.67;1.27;;;21.40;99.90;;;;;;5030952;28;20068;-79
2021/09/18 12:51:45;;;;;;;2.03;1.27;;;21.40;99.90;;;;;;5047384;28;20104;-78
2021/09/18 12:54:17;;;;;;;1.70;1.30;;;21.50;99.90;;;;;;5047772;28;20056;-79
2021/09/18 12:56:42;;;;;;;1.38;1.23;;;21.70;99.90;;;;;;5017798;28;20048;-78
2021/09/18 12:59:08;;;;;;;1.92;1.60;;;21.80;99.90;;;;;;5056932;28;20042;-78
2021/09/18 13:01:41;;;;;;;1.73;0.98;;;21.90;99.90;;;;;;5030077;28;20483;-78